Terminal Aerodrome Forecast
Issued by NWS

Home | Current Version | Previous Version | Text Only | Print | Product List | Glossary On
Versions: 1 2 3 4 5 6 7 8 9 10 11 12 13 14 15
000
FTUS42 TJSJ 212300 RRA
TAFJBQ
TAF
TJBQ 212340Z 2200/2224 08005KT P6SM FEW025
     FM221400 07013KT P6SM FEW030
     FM221700 07015KT P6SM VCTS SCT030CB BKN060
     FM222200 08005KT P6SM FEW025
      AMD NOT SKED 2202/2211=

USA.gov is the U.S. government's official web portal to all federal, state and local government web resources and services.